createdAt,value
2023-01-19T00:01:03.195Z,-6.96
2023-01-19T00:21:03.345Z,-7.24
2023-01-19T00:41:02.994Z,-7.19
2023-01-19T01:01:03.944Z,-7.22
2023-01-19T01:21:03.483Z,-7.23
2023-01-19T02:01:03.440Z,-7.58
2023-01-19T02:21:03.938Z,-7.87
2023-01-19T02:41:03.885Z,-7.86
2023-01-19T03:01:05.167Z,-7.79
2023-01-19T03:21:03.975Z,-7.91
2023-01-19T03:41:03.835Z,-7.7
2023-01-19T04:01:04.274Z,-7.52
2023-01-19T04:21:04.104Z,-7.3
2023-01-19T04:41:04.260Z,-7.52
2023-01-19T05:01:04.359Z,-7.6
2023-01-19T05:21:04.361Z,-7.57
2023-01-19T05:41:04.571Z,-7.18
2023-01-19T06:01:04.239Z,-6.68
2023-01-19T06:21:04.451Z,-6.3
2023-01-19T06:41:04.770Z,-5.89
2023-01-19T07:01:04.755Z,-5.62
2023-01-19T07:21:04.676Z,-5.33
2023-01-19T07:41:04.855Z,-4.81
2023-01-19T08:01:04.891Z,-4.22
2023-01-19T08:21:04.925Z,-3.87
2023-01-19T08:41:04.646Z,-3.44
2023-01-19T09:01:04.899Z,-3.22
2023-01-19T09:21:05.165Z,-2.83
2023-01-19T09:41:05.282Z,-1.98
2023-01-19T10:01:05.389Z,-1.86
2023-01-19T10:21:05.739Z,-1.69
2023-01-19T10:41:05.271Z,-1.32
2023-01-19T11:01:05.615Z,-0.86
2023-01-19T11:21:05.143Z,-0.27
2023-01-19T11:41:05.200Z,-0.21
2023-01-19T12:01:05.574Z,-0.19
2023-01-19T12:21:05.696Z,0.04
2023-01-19T12:41:05.398Z,0.09
2023-01-19T13:01:05.629Z,-0.02
2023-01-19T13:21:05.724Z,0.19
2023-01-19T13:41:05.704Z,0.32
2023-01-19T14:01:05.780Z,0.17
2023-01-19T14:21:05.834Z,0.08
2023-01-19T14:41:05.747Z,0.12
2023-01-19T15:01:06.075Z,0.22
2023-01-19T15:21:05.804Z,0.21
2023-01-19T15:41:05.802Z,0.04
2023-01-19T16:01:05.960Z,-0.15
2023-01-19T16:21:06.001Z,-0.21
2023-01-19T16:41:05.975Z,-0.27
2023-01-19T17:01:06.277Z,-0.27
2023-01-19T17:21:06.046Z,-0.29
2023-01-19T17:41:06.122Z,-0.45
2023-01-19T18:01:06.229Z,-0.41
2023-01-19T18:21:06.476Z,-0.34
2023-01-19T18:41:06.532Z,-0.24
2023-01-19T19:01:06.360Z,-0.24
2023-01-19T19:21:06.832Z,-0.19
2023-01-19T19:41:06.536Z,-0.15
2023-01-19T20:01:06.619Z,-0.15
2023-01-19T20:21:06.584Z,-0.15
2023-01-19T20:41:14.286Z,-0.11
2023-01-19T21:01:06.848Z,-0.18
2023-01-19T21:21:10.636Z,-0.17
2023-01-19T21:41:06.692Z,-0.24
2023-01-19T22:01:07.006Z,-0.15
2023-01-19T22:21:06.938Z,-0.15
2023-01-19T22:41:07.105Z,-0.14
2023-01-19T23:01:07.149Z,-0.15
2023-01-19T23:21:07.008Z,-0.15
2023-01-19T23:41:07.188Z,-0.14
